Time;durP1;ratioP1;P1;durP2;ratioP2;P2;SDS_P1;SDS_P2;PMS_P1;PMS_P2;Temp;Humidity;BMP_temperature;BMP_pressure;BME280_temperature;BME280_humidity;BME280_pressure;Samples;Min_cycle;Max_cycle;Signal;HPM_P1;HPM_P2
2022/12/23 00:04:55;;;;;;;131.73;53.88;;;;;;;6.19;100.00;100191.78;10571350;27;20043;-87
2022/12/23 00:09:55;;;;;;;139.30;55.30;;;;;;;6.20;100.00;100198.06;10588864;27;20802;-85
2022/12/23 00:15:04;;;;;;;145.00;60.13;;;;;;;6.16;100.00;100181.34;10555026;28;20438;-85
2022/12/23 00:20:06;;;;;;;146.70;59.75;;;;;;;6.23;100.00;100192.13;10587896;27;20518;-86
2022/12/23 00:25:06;;;;;;;128.18;53.28;;;;;;;6.17;100.00;100183.00;10551495;28;20039;-82
2022/12/23 00:30:08;;;;;;;134.70;57.30;;;;;;;6.20;100.00;100190.72;10588399;27;20065;-87
2022/12/23 00:35:09;;;;;;;143.57;53.47;;;;;;;6.15;100.00;100189.78;10554123;27;20032;-84
2022/12/23 00:45:32;;;;;;;129.95;53.92;;;;;;;6.19;100.00;100191.78;10583579;28;20496;-84
2022/12/23 00:50:36;;;;;;;153.27;55.22;;;;;;;6.18;100.00;100192.88;10554656;27;20036;-85
2022/12/23 00:55:37;;;;;;;161.98;55.60;;;;;;;6.17;100.00;100204.88;10587322;28;20046;-84
2022/12/23 01:06:00;;;;;;;162.60;56.95;;;;;;;6.16;100.00;100203.22;10564022;27;20796;-84
2022/12/23 01:11:04;;;;;;;144.05;57.33;;;;;;;6.18;100.00;100214.75;10539797;28;20047;-85
2022/12/23 01:16:09;;;;;;;163.55;57.67;;;;;;;6.17;100.00;100215.78;10532697;28;20090;-82
2022/12/23 01:21:11;;;;;;;182.88;59.55;;;;;;;6.17;100.00;100232.19;10542632;28;20102;-82
2022/12/23 01:26:12;;;;;;;172.20;62.05;;;;;;;6.03;100.00;100212.50;10542212;28;20058;-82
2022/12/23 01:31:12;;;;;;;162.43;58.70;;;;;;;6.16;100.00;100252.41;10537200;27;20043;-81
2022/12/23 01:36:13;;;;;;;168.85;59.60;;;;;;;6.14;100.00;100260.03;10584114;27;20043;-81
2022/12/23 01:42:42;;;;;;;162.25;58.53;;;;;;;6.11;100.00;100259.66;10583994;27;20039;-80
2022/12/23 01:46:38;;;;;;;154.23;56.90;;;;;;;6.05;100.00;100255.97;10599452;27;20044;-80
2022/12/23 01:51:39;;;;;;;156.55;57.17;;;;;;;6.06;100.00;100268.59;10555764;27;20537;-81
2022/12/23 01:56:39;;;;;;;162.55;59.10;;;;;;;6.05;100.00;100266.91;10583408;27;20071;-81
2022/12/23 02:12:30;;;;;;;171.77;60.35;;;;;;;6.04;100.00;100270.72;10542534;28;20137;-80
2022/12/23 02:17:46;;;;;;;168.40;59.67;;;;;;;6.03;100.00;100269.06;10543372;28;20103;-81
2022/12/23 02:23:14;;;;;;;205.05;55.80;;;;;;;6.02;100.00;100272.88;10581411;28;20114;-81
2022/12/23 02:28:39;;;;;;;182.65;60.17;;;;;;;6.01;100.00;100287.59;10578960;28;20043;-81
2022/12/23 02:33:52;;;;;;;206.00;63.88;;;;;;;5.93;100.00;100290.66;10580721;28;20040;-79
2022/12/23 02:39:00;;;;;;;189.00;64.35;;;;;;;6.02;100.00;100311.94;10588525;27;20043;-81
2022/12/23 02:44:07;;;;;;;185.90;63.42;;;;;;;6.01;100.00;100317.63;10574149;27;20095;-82
2022/12/23 02:49:19;;;;;;;178.40;60.08;;;;;;;6.02;100.00;100327.53;10556857;28;20047;-81
2022/12/23 02:54:24;;;;;;;203.73;63.83;;;;;;;6.05;100.00;100338.78;10572859;27;20031;-80
2022/12/23 02:59:26;;;;;;;194.85;64.15;;;;;;;6.09;100.00;100333.69;10555988;27;20096;-81
2022/12/23 03:04:26;;;;;;;203.20;62.80;;;;;;;6.11;100.00;100337.00;10572735;27;20052;-81
2022/12/23 03:09:35;;;;;;;218.98;60.53;;;;;;;6.12;100.00;100344.16;10570190;27;20474;-81
2022/12/23 03:14:43;;;;;;;225.93;62.10;;;;;;;6.14;100.00;100346.63;10572351;27;20031;-82
2022/12/23 03:19:54;;;;;;;198.75;61.08;;;;;;;6.13;100.00;100343.06;10588964;27;20050;-81
2022/12/23 03:25:11;;;;;;;212.38;65.68;;;;;;;6.12;100.00;100349.63;10588478;27;20054;-80
2022/12/23 03:30:13;;;;;;;210.48;61.70;;;;;;;6.13;100.00;100361.38;10587981;27;20036;-81
2022/12/23 03:35:16;;;;;;;217.60;61.95;;;;;;;6.12;100.00;100376.09;10587777;27;20148;-81
2022/12/23 03:40:21;;;;;;;220.10;62.67;;;;;;;6.10;100.00;100383.69;10558170;27;20063;-82
2022/12/23 03:45:32;;;;;;;248.68;64.00;;;;;;;6.11;100.00;100379.91;10537330;28;20119;-81
2022/12/23 03:50:33;;;;;;;240.30;71.80;;;;;;;6.03;100.00;100378.34;10542704;28;20061;-81
2022/12/23 03:55:36;;;;;;;248.70;69.80;;;;;;;6.11;100.00;100369.81;10525902;28;20070;-80
2022/12/23 04:00:40;;;;;;;253.38;69.30;;;;;;;6.10;100.00;100384.56;10544903;28;20081;-80
2022/12/23 04:05:42;;;;;;;223.63;65.35;;;;;;;6.08;100.00;100386.69;10539311;28;20035;-81
2022/12/23 04:10:42;;;;;;;292.85;69.55;;;;;;;6.02;100.00;100387.63;10551196;27;20504;-82
2022/12/23 04:15:43;;;;;;;287.88;68.78;;;;;;;6.06;100.00;100397.03;10585171;27;20058;-81
2022/12/23 04:20:43;;;;;;;237.95;67.00;;;;;;;6.01;100.00;100402.34;10531856;28;20032;-82
2022/12/23 04:25:44;;;;;;;206.65;62.80;;;;;;;5.80;100.00;100373.66;10523307;28;20552;-82
2022/12/23 04:30:44;;;;;;;232.10;63.33;;;;;;;5.99;100.00;100396.28;10490226;28;20028;-82
2022/12/23 04:35:45;;;;;;;217.55;61.25;;;;;;;5.96;100.00;100402.25;10525471;28;20063;-81
2022/12/23 04:40:46;;;;;;;234.40;60.53;;;;;;;5.92;100.00;100414.69;10508239;28;20055;-81
2022/12/23 04:45:49;;;;;;;220.85;63.75;;;;;;;5.91;100.00;100418.47;10538804;28;20122;-81
2022/12/23 04:50:50;;;;;;;214.70;58.08;;;;;;;5.90;100.00;100414.06;10559465;28;20261;-79
2022/12/23 04:55:51;;;;;;;188.88;56.83;;;;;;;5.70;100.00;100390.63;10526135;28;20048;-80
2022/12/23 05:01:08;;;;;;;234.25;57.92;;;;;;;5.73;100.00;100406.56;10538785;28;20036;-81
2022/12/23 05:06:08;;;;;;;208.77;57.75;;;;;;;5.76;100.00;100411.53;10523756;28;20038;-82
2022/12/23 05:11:09;;;;;;;210.70;58.72;;;;;;;5.74;100.00;100413.66;10523556;28;20483;-82
2022/12/23 05:16:09;;;;;;;216.48;64.38;;;;;;;5.64;100.00;100419.72;10542896;28;20032;-82
2022/12/23 05:21:11;;;;;;;241.38;56.80;;;;;;;5.55;100.00;100428.47;10516179;28;20059;-81
2022/12/23 05:26:11;;;;;;;220.18;61.10;;;;;;;5.53;100.00;100438.78;10543177;28;20047;-81
2022/12/23 05:31:12;;;;;;;267.48;57.97;;;;;;;5.56;100.00;100443.78;10541148;28;20495;-81
2022/12/23 05:36:13;;;;;;;208.32;56.22;;;;;;;5.55;100.00;100439.38;10554518;27;20055;-83
2022/12/23 05:41:15;;;;;;;206.70;53.72;;;;;;;5.42;100.00;100419.41;10580551;28;20044;-83
2022/12/23 05:46:15;;;;;;;185.95;52.08;;;;;;;5.41;100.00;100419.63;10565192;27;20124;-79
2022/12/23 05:51:16;;;;;;;189.77;55.58;;;;;;;5.35;100.00;100435.03;10565655;28;20059;-83
2022/12/23 05:56:16;;;;;;;184.60;53.72;;;;;;;5.25;100.00;100415.66;10549158;27;20047;-79
2022/12/23 06:01:17;;;;;;;195.30;51.03;;;;;;;5.24;100.00;100430.34;10577292;27;20047;-82
2022/12/23 06:06:17;;;;;;;214.60;54.90;;;;;;;5.21;100.00;100458.13;10522262;28;20036;-83
2022/12/23 06:11:18;;;;;;;224.27;50.95;;;;;;;5.28;100.00;100458.03;10518441;28;20036;-82
2022/12/23 06:16:18;;;;;;;212.50;52.97;;;;;;;5.28;100.00;100449.84;10522502;28;20494;-82
2022/12/23 06:21:19;;;;;;;219.18;53.05;;;;;;;5.33;100.00;100453.53;10555870;28;20081;-81
2022/12/23 06:26:19;;;;;;;217.38;52.65;;;;;;;5.44;100.00;100460.94;10552762;28;20043;-82
2022/12/23 06:31:20;;;;;;;209.07;53.33;;;;;;;5.34;100.00;100447.00;10540679;28;20728;-72
2022/12/23 06:36:20;;;;;;;228.40;52.03;;;;;;;5.28;100.00;100458.03;10520551;28;20052;-83
2022/12/23 06:41:20;;;;;;;304.52;54.20;;;;;;;5.18;100.00;100466.75;10520164;27;20055;-82
2022/12/23 06:46:21;;;;;;;578.50;75.60;;;;;;;5.20;100.00;100479.09;10540030;28;20045;-83
2022/12/23 06:51:22;;;;;;;512.08;71.40;;;;;;;5.24;100.00;100490.41;10521948;28;20044;-82
2022/12/23 06:56:22;;;;;;;427.20;58.58;;;;;;;5.29;100.00;100497.88;10538785;28;20031;-82
2022/12/23 07:01:23;;;;;;;493.10;77.22;;;;;;;5.24;100.00;100504.03;10537816;28;20039;-83
2022/12/23 07:06:23;;;;;;;390.17;67.57;;;;;;;5.34;100.00;100517.16;10503924;27;20040;-82
2022/12/23 07:11:24;;;;;;;280.55;61.67;;;;;;;5.36;100.00;100526.78;10581484;27;20134;-82
2022/12/23 07:16:24;;;;;;;314.55;61.45;;;;;;;5.39;100.00;100539.13;10564096;27;20047;-72
2022/12/23 07:21:25;;;;;;;292.40;62.65;;;;;;;5.37;100.00;100542.09;10565532;27;20040;-82
2022/12/23 07:26:25;;;;;;;300.90;60.47;;;;;;;5.36;100.00;100558.72;10570688;27;20043;-83
2022/12/23 07:31:26;;;;;;;241.63;56.25;;;;;;;5.28;100.00;100543.47;10564490;27;20035;-81
2022/12/23 07:36:27;;;;;;;287.17;61.70;;;;;;;5.39;100.00;100564.53;10530192;27;20054;-82
2022/12/23 07:41:27;;;;;;;262.52;58.25;;;;;;;5.40;100.00;100559.94;10564549;27;20054;-82
2022/12/23 07:46:28;;;;;;;279.38;61.17;;;;;;;5.32;100.00;100557.50;10556319;27;20035;-80
2022/12/23 07:51:28;;;;;;;372.83;64.78;;;;;;;5.43;100.00;100573.13;10558196;27;20024;-80
2022/12/23 07:56:29;;;;;;;279.50;58.60;;;;;;;5.33;100.00;100557.25;10568524;27;20042;-82
2022/12/23 08:01:29;;;;;;;282.13;61.47;;;;;;;5.44;100.00;100570.16;10551613;27;20039;-82
2022/12/23 08:06:31;;;;;;;296.77;63.33;;;;;;;5.45;100.00;100569.09;10586733;27;20411;-83
2022/12/23 08:11:31;;;;;;;281.23;64.03;;;;;;;5.44;100.00;100572.88;10566835;27;20130;-81
2022/12/23 08:16:32;;;;;;;332.45;62.22;;;;;;;5.40;100.00;100577.13;10584993;27;20035;-80
2022/12/23 08:21:32;;;;;;;278.67;64.72;;;;;;;5.34;100.00;100577.22;10585540;27;20036;-82
2022/12/23 08:26:33;;;;;;;239.73;59.60;;;;;;;5.31;100.00;100569.47;10585466;27;20046;-82
2022/12/23 08:31:33;;;;;;;273.63;58.70;;;;;;;5.22;100.00;100537.00;10567531;27;20032;-81
2022/12/23 08:36:34;;;;;;;295.67;59.63;;;;;;;5.28;100.00;100554.38;10581852;27;20032;-82
2022/12/23 08:41:37;;;;;;;283.55;59.42;;;;;;;5.30;100.00;100548.72;10537415;27;20035;-82
2022/12/23 08:46:38;;;;;;;500.23;63.65;;;;;;;5.30;100.00;100546.81;10542010;28;20357;-82
2022/12/23 08:51:38;;;;;;;538.17;60.40;;;;;;;5.11;100.00;100528.78;10508331;28;20040;-82
2022/12/23 08:56:39;;;;;;;415.50;48.35;;;;;;;5.17;100.00;100544.25;10525332;28;20052;-82
2022/12/23 09:01:40;;;;;;;324.15;44.13;;;;;;;5.11;100.00;100539.69;10535424;27;20100;-81
2022/12/23 09:06:41;;;;;;;521.08;56.00;;;;;;;5.11;100.00;100543.25;10548278;27;20425;-82
2022/12/23 09:11:41;;;;;;;397.95;51.20;;;;;;;5.18;100.00;100544.00;10562630;27;20036;-82
2022/12/23 09:16:42;;;;;;;258.63;39.38;;;;;;;5.32;100.00;100552.03;10529287;27;20051;-80
2022/12/23 09:21:43;;;;;;;445.90;43.28;;;;;;;5.40;100.00;100560.75;10545110;27;20067;-81
2022/12/23 09:26:43;;;;;;;441.25;45.80;;;;;;;5.45;100.00;100549.97;10543741;27;20042;-83
2022/12/23 09:31:44;;;;;;;395.25;40.78;;;;;;;5.47;100.00;100550.56;10527309;27;20055;-82
2022/12/23 09:36:44;;;;;;;399.95;41.60;;;;;;;5.49;100.00;100544.06;10502871;27;20052;-82
2022/12/23 09:42:02;;;;;;;222.68;36.40;;;;;;;5.66;100.00;100561.47;10518184;27;20059;-82
2022/12/23 09:47:04;;;;;;;286.30;39.53;;;;;;;5.71;100.00;100545.25;10534014;28;20122;-83
2022/12/23 09:52:05;;;;;;;251.60;43.00;;;;;;;5.84;100.00;100552.44;10502489;28;20047;-81
2022/12/23 09:57:51;;;;;;;217.57;40.70;;;;;;;5.94;100.00;100532.75;10524535;28;20036;-83
2022/12/23 10:03:16;;;;;;;211.40;43.72;;;;;;;6.12;100.00;100519.06;10538814;28;20150;-83
2022/12/23 10:08:37;;;;;;;141.77;41.22;;;;;;;6.26;100.00;100504.13;10541214;28;20044;-82
2022/12/23 10:13:40;;;;;;;170.63;42.50;;;;;;;6.47;100.00;100504.63;10541902;28;20043;-84
2022/12/23 10:18:50;;;;;;;145.57;43.72;;;;;;;6.63;100.00;100514.03;10490060;28;20411;-84
2022/12/23 10:23:52;;;;;;;118.32;44.50;;;;;;;6.66;100.00;100511.66;10543784;28;20084;-84
2022/12/23 10:29:11;;;;;;;149.77;46.63;;;;;;;6.70;100.00;100513.91;10541456;28;20550;-83
2022/12/23 10:34:21;;;;;;;159.52;48.17;;;;;;;6.78;100.00;100513.53;10545169;28;20113;-83
2022/12/23 10:39:31;;;;;;;199.50;50.65;;;;;;;6.87;100.00;100496.53;10527565;28;20032;-83
2022/12/23 10:44:48;;;;;;;140.23;49.95;;;;;;;6.83;100.00;100505.47;10563051;28;20448;-83
2022/12/23 10:49:52;;;;;;;147.85;48.70;;;;;;;6.83;100.00;100492.63;10560064;28;20039;-82
2022/12/23 10:54:52;;;;;;;129.68;47.42;;;;;;;6.88;100.00;100478.22;10580204;28;20043;-83
2022/12/23 10:59:52;;;;;;;147.35;53.83;;;;;;;6.75;100.00;100451.13;10569482;27;20027;-83
2022/12/23 11:04:53;;;;;;;141.23;52.38;;;;;;;6.84;100.00;100444.19;10569190;27;20056;-83
2022/12/23 11:09:58;;;;;;;133.90;53.17;;;;;;;6.95;100.00;100454.31;10587852;27;20039;-82
2022/12/23 11:14:58;;;;;;;128.98;54.00;;;;;;;6.99;100.00;100484.75;10552920;27;20081;-82
2022/12/23 11:20:17;;;;;;;128.52;50.22;;;;;;;6.91;100.00;100461.31;10565876;27;20093;-83
2022/12/23 11:25:39;;;;;;;126.20;48.13;;;;;;;6.98;100.00;100451.06;10570940;27;20038;-82
2022/12/23 11:30:52;;;;;;;126.10;49.17;;;;;;;6.99;100.00;100430.84;10575430;27;20050;-84
2022/12/23 11:36:13;;;;;;;135.05;49.80;;;;;;;7.03;100.00;100431.22;10586142;27;20027;-83
2022/12/23 11:41:18;;;;;;;127.28;50.40;;;;;;;7.04;100.00;100430.94;10585861;27;20047;-84
2022/12/23 11:46:27;;;;;;;121.05;47.28;;;;;;;7.06;100.00;100437.00;10588443;27;20035;-83
2022/12/23 11:51:27;;;;;;;130.85;48.35;;;;;;;7.08;100.00;100421.19;10565660;27;20027;-82
2022/12/23 11:56:36;;;;;;;116.88;49.47;;;;;;;7.06;100.00;100408.81;10532662;27;20047;-82
2022/12/23 12:01:38;;;;;;;106.55;45.97;;;;;;;7.02;100.00;100380.25;10566083;27;20040;-82
2022/12/23 12:06:42;;;;;;;112.25;47.15;;;;;;;6.99;100.00;100359.69;10529690;28;20032;-79
2022/12/23 12:11:49;;;;;;;133.35;49.10;;;;;;;7.02;100.00;100348.25;10527342;27;20042;-77
2022/12/23 12:16:57;;;;;;;;;;;;;;;7.03;100.00;100354.56;10549486;27;20040;-80
2022/12/23 12:22:09;;;;;;;87.20;41.13;;;;;;;6.95;100.00;100344.84;10561471;27;19916;-77
2022/12/23 12:27:09;;;;;;;99.63;40.58;;;;;;;6.91;100.00;100340.91;10573857;27;20046;-79
2022/12/23 12:32:27;;;;;;;91.95;40.35;;;;;;;6.92;100.00;100353.50;10550857;28;20102;-79
2022/12/23 12:37:47;;;;;;;95.28;39.83;;;;;;;6.91;100.00;100357.34;10556003;27;20031;-80
2022/12/23 12:42:52;;;;;;;78.22;36.45;;;;;;;6.90;100.00;100343.88;10584142;27;20036;-79
2022/12/23 12:48:03;;;;;;;77.68;36.35;;;;;;;6.85;100.00;100342.72;10543323;28;20036;-78
2022/12/23 12:53:30;;;;;;;92.00;37.72;;;;;;;6.84;100.00;100326.53;10562636;27;20047;-79
2022/12/23 12:58:30;;;;;;;90.97;39.20;;;;;;;6.86;100.00;100318.91;10558156;27;20028;-78
2022/12/23 13:03:54;;;;;;;93.65;38.33;;;;;;;6.88;100.00;100314.03;10581794;27;20051;-80
2022/12/23 13:09:12;;;;;;;96.55;41.22;;;;;;;6.83;100.00;100300.25;10581030;27;20040;-80
2022/12/23 13:14:37;;;;;;;97.95;42.35;;;;;;;6.91;100.00;100301.78;10549035;27;20032;-80
2022/12/23 13:19:44;;;;;;;105.45;44.33;;;;;;;6.91;100.00;100313.56;10564262;27;20043;-79
2022/12/23 13:25:07;;;;;;;107.35;44.60;;;;;;;6.92;100.00;100293.31;10565528;28;20038;-80
2022/12/23 13:30:16;;;;;;;125.05;46.42;;;;;;;6.91;100.00;100297.13;10569147;27;20047;-80
2022/12/23 13:35:38;;;;;;;117.55;47.72;;;;;;;6.91;100.00;100297.13;10540968;28;20052;-79
2022/12/23 13:40:48;;;;;;;106.03;44.63;;;;;;;6.89;100.00;100290.25;10553577;28;20032;-82
2022/12/23 13:45:49;;;;;;;116.57;46.85;;;;;;;6.87;100.00;100280.38;10563687;28;20036;-80
2022/12/23 13:50:55;;;;;;;114.00;46.25;;;;;;;6.86;100.00;100278.72;10544904;27;20035;-81
2022/12/23 13:56:53;;;;;;;108.88;45.00;;;;;;;6.84;100.00;100269.94;10564986;27;20040;-80
2022/12/23 14:01:53;;;;;;;111.72;44.78;;;;;;;6.81;100.00;100253.16;10390807;28;20053;-80
2022/12/23 14:06:55;;;;;;;117.47;44.70;;;;;;;6.81;100.00;100258.63;10502973;28;20511;-80
2022/12/23 14:11:56;;;;;;;107.40;46.72;;;;;;;6.80;100.00;100246.00;10505379;28;20036;-81
2022/12/23 14:17:02;;;;;;;133.30;44.80;;;;;;;6.80;100.00;100240.53;10521269;28;20047;-81
2022/12/23 14:22:21;;;;;;;129.32;47.72;;;;;;;6.77;100.00;100236.41;10521744;28;20040;-81
2022/12/23 14:27:50;;;;;;;135.98;50.42;;;;;;;6.77;100.00;100235.56;10539870;28;20093;-84
2022/12/23 14:33:01;;;;;;;132.45;51.00;;;;;;;6.65;100.00;100205.53;10555591;28;20100;-81
2022/12/23 14:38:20;;;;;;;128.95;52.47;;;;;;;6.74;100.00;100228.69;10515017;28;20032;-81
2022/12/23 14:43:20;;;;;;;142.85;51.33;;;;;;;6.71;100.00;100225.59;10530486;28;20070;-81
2022/12/23 14:48:33;;;;;;;139.15;51.33;;;;;;;6.70;100.00;100226.66;10545167;28;20052;-81
2022/12/23 14:53:37;;;;;;;138.73;48.20;;;;;;;6.63;100.00;100218.63;10538038;28;20054;-81
2022/12/23 14:59:11;;;;;;;130.15;50.20;;;;;;;6.68;100.00;100221.47;10505306;27;20040;-81
2022/12/23 15:04:17;;;;;;;140.55;50.10;;;;;;;6.66;100.00;100223.63;10561951;27;20039;-82
2022/12/23 15:09:47;;;;;;;153.15;51.20;;;;;;;6.63;100.00;100219.44;10529628;28;20403;-80
2022/12/23 15:14:56;;;;;;;135.23;47.22;;;;;;;6.61;100.00;100216.13;10493693;27;20055;-81
2022/12/23 15:20:08;;;;;;;158.82;53.10;;;;;;;6.58;100.00;100211.16;10530708;28;20035;-80
2022/12/23 15:25:31;;;;;;;155.57;50.53;;;;;;;6.56;100.00;100207.00;10549999;28;20098;-82
2022/12/23 15:30:36;;;;;;;158.68;54.70;;;;;;;6.53;100.00;100191.94;10556588;27;20043;-71
2022/12/23 15:35:37;;;;;;;145.45;52.15;;;;;;;6.52;100.00;100200.38;10549741;27;20067;-81
2022/12/23 15:40:38;;;;;;;150.63;51.35;;;;;;;6.37;100.00;100179.03;10539229;27;20051;-77
2022/12/23 15:45:39;;;;;;;149.45;52.67;;;;;;;6.46;100.00;100186.56;10534946;27;20048;-77
2022/12/23 15:50:39;;;;;;;167.15;52.60;;;;;;;6.43;100.00;100172.59;10566260;27;20056;-80
2022/12/23 15:55:40;;;;;;;169.93;55.40;;;;;;;6.35;100.00;100168.31;10532276;28;20064;-78
2022/12/23 16:00:57;;;;;;;159.40;54.17;;;;;;;6.39;100.00;100174.97;10546385;28;20341;-78
2022/12/23 16:06:15;;;;;;;;;;;;;;;6.37;100.00;100170.81;10513994;28;20032;-78
2022/12/23 16:11:17;;;;;;;150.52;51.50;;;;;;;6.34;100.00;100161.19;10540767;27;20011;-78
2022/12/23 16:16:17;;;;;;;133.75;53.17;;;;;;;6.31;100.00;100164.41;10523570;27;20135;-78
2022/12/23 16:21:18;;;;;;;157.35;51.65;;;;;;;6.30;100.00;100167.38;10530373;28;20255;-76
2022/12/23 16:26:19;;;;;;;170.77;56.88;;;;;;;6.31;100.00;100160.88;10514771;28;20032;-78
2022/12/23 16:31:19;;;;;;;158.50;56.13;;;;;;;6.30;100.00;100153.72;10551677;28;20035;-79
2022/12/23 16:36:27;;;;;;;159.70;56.03;;;;;;;6.28;100.00;100156.69;10569303;28;20497;-79
2022/12/23 16:41:28;;;;;;;171.35;59.58;;;;;;;6.30;100.00;100156.47;10540972;28;20044;-78
2022/12/23 16:46:35;;;;;;;164.88;57.38;;;;;;;6.28;100.00;100145.75;10541927;28;20031;-77
2022/12/23 16:51:35;;;;;;;172.52;59.67;;;;;;;6.13;100.00;100129.06;10541972;28;20032;-78
2022/12/23 16:56:36;;;;;;;160.10;58.45;;;;;;;5.94;100.00;100106.53;10522275;28;20036;-77
2022/12/23 17:01:47;;;;;;;174.40;62.13;;;;;;;6.33;100.00;100158.72;10538333;28;20067;-76
2022/12/23 17:06:47;;;;;;;169.15;60.22;;;;;;;6.33;100.00;100161.44;10522160;28;20039;-77
2022/12/23 17:11:49;;;;;;;145.00;57.58;;;;;;;6.32;100.00;100165.25;10542248;28;20069;-76
2022/12/23 17:16:50;;;;;;;153.07;61.55;;;;;;;6.31;100.00;100161.69;10500856;27;20036;-77
2022/12/23 17:21:52;;;;;;;167.98;61.17;;;;;;;6.32;100.00;100166.06;10561032;27;20035;-76
2022/12/23 17:26:53;;;;;;;155.57;62.63;;;;;;;6.25;100.00;100154.47;10558561;28;20043;-76
2022/12/23 17:31:54;;;;;;;151.10;62.30;;;;;;;6.32;100.00;100168.81;10510016;28;20380;-77
2022/12/23 17:36:54;;;;;;;129.43;58.28;;;;;;;6.25;100.00;100159.94;10558774;27;20036;-77
2022/12/23 17:41:55;;;;;;;166.38;61.08;;;;;;;6.32;100.00;100162.50;10543008;27;20039;-77
2022/12/23 17:46:55;;;;;;;136.07;54.83;;;;;;;6.31;100.00;100166.34;10535882;28;20040;-77
2022/12/23 17:51:56;;;;;;;151.80;55.38;;;;;;;6.28;100.00;100166.81;10527793;27;20031;-77
2022/12/23 17:56:56;;;;;;;133.07;54.72;;;;;;;6.25;100.00;100166.22;10562897;27;20031;-77
2022/12/23 18:01:57;;;;;;;142.15;51.75;;;;;;;6.22;100.00;100166.72;10546177;28;20035;-77
2022/12/23 18:06:57;;;;;;;154.00;54.90;;;;;;;6.22;100.00;100166.72;10579880;27;20058;-77
2022/12/23 18:11:58;;;;;;;156.73;57.30;;;;;;;6.19;100.00;100167.19;10520506;28;20085;-77
2022/12/23 18:16:58;;;;;;;157.57;57.08;;;;;;;6.21;100.00;100173.25;10520067;27;20032;-78
2022/12/23 18:21:59;;;;;;;183.73;62.13;;;;;;;6.19;100.00;100169.91;10579111;28;20040;-78
2022/12/23 18:26:59;;;;;;;170.15;58.03;;;;;;;5.59;100.00;100074.69;10561682;28;20044;-77
2022/12/23 18:32:00;;;;;;;160.40;58.78;;;;;;;6.19;100.00;100167.19;10560381;28;20043;-78
2022/12/23 18:37:00;;;;;;;174.82;60.15;;;;;;;6.19;100.00;100163.63;10574789;28;20028;-77
2022/12/23 18:42:01;;;;;;;181.40;56.08;;;;;;;6.16;100.00;100154.03;10561668;28;20047;-78
2022/12/23 18:47:01;;;;;;;154.82;54.72;;;;;;;6.16;100.00;100167.69;10541740;28;20052;-78
2022/12/23 18:52:02;;;;;;;164.65;51.97;;;;;;;6.11;100.00;100159.38;10579109;28;20051;-77
2022/12/23 18:57:03;;;;;;;159.32;52.88;;;;;;;6.09;100.00;100161.50;10561286;28;20138;-77
2022/12/23 19:02:04;;;;;;;120.05;51.08;;;;;;;6.06;100.00;100159.28;10532327;28;20044;-78
2022/12/23 19:07:05;;;;;;;146.80;52.72;;;;;;;6.05;100.00;100165.81;10512936;28;20870;-78
2022/12/23 19:12:05;;;;;;;137.43;54.10;;;;;;;5.92;100.00;100144.19;10557693;28;20059;-78
2022/12/23 19:17:06;;;;;;;143.45;53.03;;;;;;;5.99;100.00;100164.03;10577573;28;20050;-78
2022/12/23 19:22:07;;;;;;;145.88;52.00;;;;;;;5.98;100.00;100156.91;10569158;27;20039;-77
2022/12/23 19:27:07;;;;;;;135.98;51.67;;;;;;;5.96;100.00;100162.63;10530590;27;20449;-78
2022/12/23 19:32:08;;;;;;;161.48;51.22;;;;;;;5.96;100.00;100170.00;10542438;28;20036;-78
2022/12/23 19:37:08;;;;;;;128.10;51.75;;;;;;;5.94;100.00;100172.09;10582218;27;20039;-77
2022/12/23 19:42:09;;;;;;;149.48;53.20;;;;;;;5.92;100.00;100174.25;10579232;27;20035;-78
2022/12/23 19:47:10;;;;;;;136.95;54.10;;;;;;;5.90;100.00;100177.22;10584518;27;20062;-78
2022/12/23 19:52:10;;;;;;;148.07;49.78;;;;;;;5.90;100.00;100177.22;10551040;27;20114;-78
2022/12/23 19:57:12;;;;;;;141.77;52.90;;;;;;;5.90;100.00;100176.38;10585676;27;20039;-78
2022/12/23 20:02:14;;;;;;;142.75;52.63;;;;;;;5.89;100.00;100185.66;10574393;27;20036;-78
2022/12/23 20:07:14;;;;;;;146.88;49.10;;;;;;;5.86;100.00;100193.25;10584574;27;20048;-78
2022/12/23 20:12:15;;;;;;;138.35;54.83;;;;;;;5.72;100.00;100166.44;10583541;27;20675;-78
2022/12/23 20:17:15;;;;;;;145.32;49.60;;;;;;;5.85;100.00;100193.50;10565185;27;20043;-79
2022/12/23 20:22:16;;;;;;;126.95;49.78;;;;;;;5.85;100.00;100191.59;10583805;27;20044;-79
2022/12/23 20:27:16;;;;;;;137.50;50.75;;;;;;;5.75;100.00;100172.25;10544701;27;20042;-78
2022/12/23 20:32:17;;;;;;;142.65;49.65;;;;;;;5.82;100.00;100186.59;10556656;28;21891;-79
2022/12/23 20:37:17;;;;;;;123.55;48.38;;;;;;;5.71;100.00;100168.34;10581273;27;20036;-77
2022/12/23 20:42:18;;;;;;;149.70;50.70;;;;;;;5.79;100.00;100192.56;10562775;27;20047;-80
2022/12/23 20:47:18;;;;;;;135.15;47.60;;;;;;;5.65;100.00;100172.03;10562329;27;20051;-79
2022/12/23 20:52:19;;;;;;;139.73;49.78;;;;;;;5.77;100.00;100183.78;10562581;27;20076;-79
2022/12/23 20:57:19;;;;;;;135.65;47.42;;;;;;;5.78;100.00;100198.25;10560993;28;20047;-79
2022/12/23 21:02:20;;;;;;;122.38;46.45;;;;;;;5.74;100.00;100195.16;10559998;28;20044;-79
2022/12/23 21:07:20;;;;;;;133.65;47.15;;;;;;;5.73;100.00;100198.97;10581926;27;20071;-79
2022/12/23 21:12:21;;;;;;;121.00;42.88;;;;;;;5.73;100.00;100203.63;10581750;27;20047;-77
2022/12/23 21:17:22;;;;;;;131.93;45.53;;;;;;;5.63;100.00;100196.00;10547799;27;20036;-77
2022/12/23 21:22:23;;;;;;;120.75;45.13;;;;;;;5.69;100.00;100197.78;10546927;28;20049;-77
2022/12/23 21:27:23;;;;;;;133.30;46.75;;;;;;;5.68;100.00;100196.13;10551879;28;20036;-78
2022/12/23 21:32:24;;;;;;;135.35;46.95;;;;;;;5.68;100.00;100211.69;10563707;27;20092;-78
2022/12/23 21:37:26;;;;;;;122.35;46.63;;;;;;;5.68;100.00;100211.69;10538665;28;20036;-78
2022/12/23 21:42:26;;;;;;;137.73;45.97;;;;;;;5.63;100.00;100209.66;10581532;27;20032;-77
2022/12/23 21:47:27;;;;;;;142.50;47.72;;;;;;;5.70;100.00;100215.81;10563037;28;20031;-78
2022/12/23 21:52:27;;;;;;;125.68;46.88;;;;;;;5.70;100.00;100215.81;10543558;27;20044;-73
2022/12/23 21:57:28;;;;;;;129.88;46.28;;;;;;;5.59;100.00;100201.13;10572740;28;20067;-79
2022/12/23 22:02:28;;;;;;;120.72;45.30;;;;;;;5.66;100.00;100218.22;10545780;27;20031;-78
2022/12/23 22:07:29;;;;;;;114.07;45.63;;;;;;;5.66;100.00;100209.19;10563134;28;20069;-78
2022/12/23 22:12:29;;;;;;;130.60;46.20;;;;;;;5.67;100.00;100210.84;10563158;27;20071;-78
2022/12/23 22:17:29;;;;;;;123.28;44.65;;;;;;;5.66;100.00;100217.38;10558053;28;20062;-78
2022/12/23 22:22:30;;;;;;;133.50;44.95;;;;;;;5.66;100.00;100214.63;10569641;28;20032;-78
2022/12/23 22:27:30;;;;;;;124.13;45.30;;;;;;;5.66;100.00;100222.84;10579207;28;20032;-78
2022/12/23 22:32:31;;;;;;;122.43;43.08;;;;;;;5.56;100.00;100206.22;10579887;28;20032;-78
2022/12/23 22:37:31;;;;;;;130.48;44.40;;;;;;;5.61;100.00;100218.09;10562334;28;20510;-68
2022/12/23 22:42:32;;;;;;;144.07;47.58;;;;;;;5.68;100.00;100231.63;10536100;28;20372;-78
2022/12/23 22:47:32;;;;;;;142.68;45.17;;;;;;;5.63;100.00;100217.88;10553778;28;20048;-78
2022/12/23 22:52:33;;;;;;;124.68;45.80;;;;;;;5.66;100.00;100228.28;10563996;28;20059;-78
2022/12/23 22:57:34;;;;;;;139.40;44.22;;;;;;;5.26;100.00;100171.69;10552983;27;20040;-78